Time;durP1;ratioP1;P1;durP2;ratioP2;P2;SDS_P1;SDS_P2;PMS_P1;PMS_P2;Temp;Humidity;BMP_temperature;BMP_pressure;BME280_temperature;BME280_humidity;BME280_pressure;Samples;Min_cycle;Max_cycle;Signal;HPM_P1;HPM_P2
2024/03/04 00:00:43;;;;;;;11.97;4.90;;;4.70;99.90;;;;;;5111628;28;20027;-76
2024/03/04 00:03:09;;;;;;;9.27;4.33;;;4.70;99.90;;;;;;5110072;28;20106;-76
2024/03/04 00:05:35;;;;;;;6.20;3.67;;;4.80;99.90;;;;;;5109423;28;20106;-76
2024/03/04 00:08:02;;;;;;;6.67;3.53;;;4.80;99.90;;;;;;5109876;28;20148;-76
2024/03/04 00:10:27;;;;;;;8.37;3.33;;;4.80;99.90;;;;;;5111161;28;20030;-76
2024/03/04 00:12:55;;;;;;;7.57;3.33;;;4.80;99.90;;;;;;5110271;28;20107;-76
2024/03/04 00:15:24;;;;;;;4.80;2.60;;;4.80;99.90;;;;;;5109427;28;20019;-76
2024/03/04 00:17:53;;;;;;;6.93;2.90;;;4.80;99.90;;;;;;5109388;28;20035;-76
2024/03/04 00:20:19;;;;;;;6.60;2.77;;;4.80;99.90;;;;;;5109867;28;20027;-76
2024/03/04 00:22:47;;;;;;;6.93;2.87;;;4.80;99.90;;;;;;5109865;28;20020;-76
2024/03/04 00:25:15;;;;;;;6.13;3.30;;;4.80;99.90;;;;;;5110636;28;20028;-76
2024/03/04 00:27:45;;;;;;;5.17;3.27;;;4.70;99.90;;;;;;5109815;28;20024;-76
2024/03/04 00:30:12;;;;;;;6.93;3.80;;;4.60;99.90;;;;;;5109307;28;20024;-76
2024/03/04 00:32:38;;;;;;;6.23;3.30;;;4.60;99.90;;;;;;5109767;28;20028;-76
2024/03/04 00:35:09;;;;;;;5.20;3.30;;;4.50;99.90;;;;;;5109236;28;20054;-76
2024/03/04 00:37:35;;;;;;;5.73;3.50;;;4.50;99.90;;;;;;5109642;28;20051;-76
2024/03/04 00:40:05;;;;;;;7.30;3.50;;;4.50;99.90;;;;;;5110874;28;20034;-76
2024/03/04 00:42:32;;;;;;;8.10;4.60;;;4.40;99.90;;;;;;5113908;28;20448;-76
2024/03/04 00:44:58;;;;;;;9.73;4.80;;;4.40;99.90;;;;;;5114156;28;20064;-76
2024/03/04 00:47:23;;;;;;;8.50;4.80;;;4.40;99.90;;;;;;5113485;27;20500;-76
2024/03/04 00:49:49;;;;;;;7.17;4.53;;;4.40;99.90;;;;;;5113512;27;20047;-76
2024/03/04 00:52:17;;;;;;;14.57;4.30;;;4.30;99.90;;;;;;5113427;27;20020;-76
2024/03/04 00:54:45;;;;;;;6.70;3.50;;;4.30;99.90;;;;;;5112998;27;20039;-76
2024/03/04 00:57:11;;;;;;;6.97;3.67;;;4.30;99.90;;;;;;5113406;27;20032;-76
2024/03/04 00:59:37;;;;;;;7.23;4.00;;;4.20;99.90;;;;;;5114137;27;20030;-76
2024/03/04 01:02:05;;;;;;;8.63;3.30;;;4.20;99.90;;;;;;5113632;27;20087;-76
2024/03/04 01:04:31;;;;;;;5.73;3.60;;;4.20;99.90;;;;;;5112483;27;21003;-76
2024/03/04 01:06:57;;;;;;;9.37;4.27;;;4.20;99.90;;;;;;5113202;27;20055;-76
2024/03/04 01:09:22;;;;;;;7.23;3.40;;;4.20;99.90;;;;;;5113259;27;20047;-76
2024/03/04 01:11:48;;;;;;;6.27;2.97;;;4.20;99.90;;;;;;5113959;27;20027;-76
2024/03/04 01:14:13;;;;;;;4.27;3.27;;;4.20;99.90;;;;;;5112033;27;20019;-76
2024/03/04 01:16:42;;;;;;;4.50;2.50;;;4.20;99.90;;;;;;5113742;27;20016;-76
2024/03/04 01:19:08;;;;;;;5.90;2.70;;;4.20;99.90;;;;;;5110168;27;20028;-76
2024/03/04 01:21:34;;;;;;;4.47;2.97;;;4.20;99.90;;;;;;5112613;27;20114;-76
2024/03/04 01:24:00;;;;;;;7.90;3.13;;;4.20;99.90;;;;;;5112525;27;20024;-76
2024/03/04 01:26:26;;;;;;;5.20;2.77;;;4.20;99.90;;;;;;5112386;27;20022;-76
2024/03/04 01:28:51;;;;;;;4.90;2.73;;;4.20;99.90;;;;;;5113464;27;20094;-76
2024/03/04 01:31:18;;;;;;;5.93;3.57;;;4.20;99.90;;;;;;5121293;27;20020;-76
2024/03/04 01:33:50;;;;;;;5.33;2.70;;;4.20;99.90;;;;;;5112344;27;20400;-76
2024/03/04 01:36:16;;;;;;;5.80;2.90;;;4.20;99.90;;;;;;5113974;28;20024;-76
2024/03/04 01:38:42;;;;;;;7.70;3.07;;;4.10;99.90;;;;;;5114127;28;20031;-76
2024/03/04 01:41:07;;;;;;;7.73;3.27;;;4.10;99.90;;;;;;5107891;28;20024;-76
2024/03/04 01:43:33;;;;;;;7.47;2.57;;;4.00;99.90;;;;;;5102165;28;20023;-76
2024/03/04 01:45:59;;;;;;;5.77;2.60;;;4.00;99.90;;;;;;5104687;28;20065;-76
2024/03/04 01:48:25;;;;;;;3.70;2.57;;;4.00;99.90;;;;;;5114184;28;20024;-75
2024/03/04 01:50:51;;;;;;;5.53;2.53;;;4.00;99.90;;;;;;5113754;28;20511;-76
2024/03/04 01:53:18;;;;;;;4.43;2.40;;;4.00;99.90;;;;;;5113956;28;20032;-76
2024/03/04 01:55:53;;;;;;;4.90;2.30;;;4.00;99.90;;;;;;5113538;28;20058;-76
2024/03/04 01:58:20;;;;;;;7.20;2.90;;;4.00;99.90;;;;;;5113473;28;20543;-76
2024/03/04 02:00:48;;;;;;;3.93;2.30;;;4.00;99.90;;;;;;5113913;28;20036;-76
2024/03/04 02:03:16;;;;;;;5.40;2.30;;;4.00;99.90;;;;;;5113893;28;20020;-76
2024/03/04 02:05:43;;;;;;;7.60;2.63;;;4.00;99.90;;;;;;5113258;28;20239;-76
2024/03/04 02:08:12;;;;;;;4.03;1.93;;;4.00;99.90;;;;;;5113448;28;20031;-76
2024/03/04 02:10:38;;;;;;;3.37;2.17;;;4.00;99.90;;;;;;5113593;28;20028;-76
2024/03/04 02:13:04;;;;;;;5.00;2.60;;;4.10;99.90;;;;;;5113614;28;20366;-76
2024/03/04 02:15:34;;;;;;;6.90;2.53;;;4.10;99.90;;;;;;5112795;28;20490;-76
2024/03/04 02:18:00;;;;;;;4.30;1.97;;;4.00;99.90;;;;;;5113443;28;20063;-76
2024/03/04 02:20:27;;;;;;;5.07;2.10;;;4.00;99.90;;;;;;5109078;27;20050;-76
2024/03/04 02:22:54;;;;;;;4.17;1.77;;;4.00;99.90;;;;;;5112625;27;20026;-76
2024/03/04 02:25:22;;;;;;;5.40;2.00;;;4.00;99.90;;;;;;5111166;28;20480;-76
2024/03/04 02:27:48;;;;;;;3.50;2.17;;;4.00;99.90;;;;;;5111844;28;20042;-76
2024/03/04 02:30:13;;;;;;;3.83;2.30;;;4.00;99.90;;;;;;5110374;28;20103;-76
2024/03/04 02:32:41;;;;;;;6.60;2.77;;;4.00;99.90;;;;;;5112359;28;20499;-76
2024/03/04 02:35:07;;;;;;;3.13;1.90;;;3.90;99.90;;;;;;5111564;28;20019;-76
2024/03/04 02:37:35;;;;;;;6.43;2.40;;;3.80;99.90;;;;;;5111772;27;20023;-76
2024/03/04 02:40:04;;;;;;;3.87;2.17;;;3.70;99.90;;;;;;5112390;27;20537;-76
2024/03/04 02:42:31;;;;;;;3.30;1.90;;;3.70;99.90;;;;;;5111341;27;20019;-76
2024/03/04 02:44:57;;;;;;;8.43;2.50;;;3.60;99.90;;;;;;5111473;27;20073;-76
2024/03/04 02:47:22;;;;;;;3.13;2.20;;;3.60;99.90;;;;;;5112399;28;20027;-76
2024/03/04 02:49:48;;;;;;;8.50;2.60;;;3.50;99.90;;;;;;5107939;27;21279;-76
2024/03/04 02:52:14;;;;;;;3.10;2.10;;;3.50;99.90;;;;;;5109382;27;20046;-75
2024/03/04 02:54:39;;;;;;;5.57;2.30;;;3.50;99.90;;;;;;5110610;28;20497;-76
2024/03/04 02:57:05;;;;;;;5.33;2.13;;;3.40;99.90;;;;;;5111000;27;20055;-76
2024/03/04 02:59:31;;;;;;;4.67;2.33;;;3.40;99.90;;;;;;5112541;28;20076;-76
2024/03/04 03:01:56;;;;;;;5.20;2.33;;;3.40;99.90;;;;;;5110338;28;20026;-75
2024/03/04 03:04:24;;;;;;;5.53;2.40;;;3.40;99.90;;;;;;5110589;27;20043;-76
2024/03/04 03:06:49;;;;;;;8.00;2.63;;;3.30;99.90;;;;;;5111125;27;20063;-76
2024/03/04 03:09:15;;;;;;;4.93;2.53;;;3.30;99.90;;;;;;5111294;27;20058;-76
2024/03/04 03:11:41;;;;;;;4.67;2.40;;;3.30;99.90;;;;;;5112174;28;20043;-76
2024/03/04 03:14:07;;;;;;;6.13;2.40;;;3.30;99.90;;;;;;5111564;27;20031;-76
2024/03/04 03:16:33;;;;;;;6.30;2.63;;;3.20;99.90;;;;;;5110700;28;20470;-76
2024/03/04 03:18:59;;;;;;;4.10;2.13;;;3.20;99.90;;;;;;5111333;27;20076;-76
2024/03/04 03:21:26;;;;;;;7.17;2.60;;;3.20;99.90;;;;;;5111598;28;20046;-76
2024/03/04 03:23:52;;;;;;;8.00;2.10;;;3.20;99.90;;;;;;5110168;28;20075;-76
2024/03/04 03:26:18;;;;;;;3.50;2.27;;;3.10;99.90;;;;;;5110194;27;20038;-76
2024/03/04 03:28:44;;;;;;;5.17;2.00;;;3.20;99.90;;;;;;5111489;28;20059;-76
2024/03/04 03:31:10;;;;;;;3.93;2.00;;;3.10;99.90;;;;;;5110242;27;20108;-76
2024/03/04 03:33:36;;;;;;;4.67;2.33;;;3.10;99.90;;;;;;5110257;27;20019;-76
2024/03/04 03:36:03;;;;;;;3.63;2.00;;;3.00;99.90;;;;;;5109937;27;20249;-76
2024/03/04 03:38:30;;;;;;;5.50;2.40;;;3.00;99.90;;;;;;5110319;28;20034;-76
2024/03/04 03:40:56;;;;;;;3.47;2.23;;;3.00;99.90;;;;;;5111994;28;20032;-75
2024/03/04 03:43:22;;;;;;;4.97;2.73;;;3.00;99.90;;;;;;5110608;28;20032;-76
2024/03/04 03:45:47;;;;;;;4.70;2.70;;;2.90;99.90;;;;;;5109869;28;20372;-76
2024/03/04 03:48:18;;;;;;;5.57;2.30;;;2.90;99.90;;;;;;5110086;28;20035;-76
2024/03/04 03:50:47;;;;;;;3.40;2.03;;;2.90;99.90;;;;;;5110430;28;20019;-75
2024/03/04 03:53:13;;;;;;;4.23;2.03;;;3.00;99.90;;;;;;5113540;27;20031;-75
2024/03/04 03:55:40;;;;;;;8.10;2.87;;;3.10;99.90;;;;;;5119928;27;20058;-76
2024/03/04 03:58:07;;;;;;;7.10;2.50;;;3.20;99.90;;;;;;5109915;28;20020;-76
2024/03/04 04:00:32;;;;;;;5.33;2.90;;;3.40;99.90;;;;;;5113337;27;20049;-76
2024/03/04 04:02:58;;;;;;;9.57;3.67;;;3.60;99.90;;;;;;5109931;28;20047;-76
2024/03/04 04:05:24;;;;;;;5.50;2.90;;;3.70;99.90;;;;;;5109538;28;20020;-76
2024/03/04 04:07:49;;;;;;;8.87;2.67;;;3.80;99.90;;;;;;5109803;28;20095;-76
2024/03/04 04:10:15;;;;;;;6.10;2.63;;;3.90;99.90;;;;;;5111372;28;20518;-75
2024/03/04 04:12:40;;;;;;;4.43;2.73;;;3.90;99.90;;;;;;5111010;28;20480;-76
2024/03/04 04:15:06;;;;;;;8.10;3.00;;;4.00;99.90;;;;;;5113371;28;20030;-76
2024/03/04 04:17:33;;;;;;;9.37;3.30;;;4.00;99.90;;;;;;5113501;27;20023;-76
2024/03/04 04:19:59;;;;;;;7.23;3.57;;;4.00;99.90;;;;;;5115029;27;20027;-76
2024/03/04 04:22:26;;;;;;;6.53;3.60;;;4.00;99.90;;;;;;5115085;27;20498;-76
2024/03/04 04:24:52;;;;;;;7.47;3.87;;;4.10;99.90;;;;;;5114832;28;20040;-75
2024/03/04 04:27:18;;;;;;;7.90;4.37;;;4.10;99.90;;;;;;5114329;28;20020;-76
2024/03/04 04:29:43;;;;;;;7.17;4.00;;;4.20;99.90;;;;;;5115705;27;20057;-76
2024/03/04 04:32:11;;;;;;;7.37;4.60;;;4.20;99.90;;;;;;5114491;28;20039;-76
2024/03/04 04:34:36;;;;;;;10.67;4.80;;;4.20;99.90;;;;;;5121461;27;20019;-76
2024/03/04 04:37:02;;;;;;;9.33;5.00;;;4.20;99.90;;;;;;5114922;28;20012;-76
2024/03/04 04:39:28;;;;;;;10.57;5.30;;;4.30;99.90;;;;;;5110740;27;20392;-76
2024/03/04 04:41:53;;;;;;;8.47;5.83;;;4.30;99.90;;;;;;5113322;27;20119;-75
2024/03/04 04:44:19;;;;;;;12.43;6.20;;;4.40;99.90;;;;;;5112584;27;20028;-76
2024/03/04 04:46:44;;;;;;;13.07;7.97;;;4.40;99.90;;;;;;5114735;28;20091;-76
2024/03/04 04:49:10;;;;;;;11.97;7.30;;;4.40;99.90;;;;;;5112324;27;20028;-76
2024/03/04 04:51:35;;;;;;;13.37;7.63;;;4.50;99.90;;;;;;5111720;27;20034;-76
2024/03/04 04:54:01;;;;;;;13.07;8.27;;;4.60;99.90;;;;;;5124362;27;20019;-76
2024/03/04 04:56:28;;;;;;;15.43;8.20;;;4.70;99.90;;;;;;5116144;27;20508;-76
2024/03/04 04:58:53;;;;;;;13.00;8.33;;;4.70;99.90;;;;;;5115682;27;20030;-76
2024/03/04 05:01:28;;;;;;;14.60;8.87;;;4.70;99.90;;;;;;5118636;27;20027;-76
2024/03/04 05:03:54;;;;;;;15.23;9.20;;;4.70;99.90;;;;;;5116973;27;20150;-76
2024/03/04 05:06:20;;;;;;;14.23;9.43;;;4.80;99.90;;;;;;5116625;27;20032;-76
2024/03/04 05:08:49;;;;;;;14.60;9.57;;;4.80;99.90;;;;;;5120558;27;20028;-76
2024/03/04 05:11:15;;;;;;;14.70;9.70;;;4.80;99.90;;;;;;5118015;27;20023;-76
2024/03/04 05:13:42;;;;;;;16.77;9.53;;;4.70;99.90;;;;;;5113831;27;20053;-76
2024/03/04 05:16:08;;;;;;;17.93;11.07;;;4.70;99.90;;;;;;5112393;27;20035;-76
2024/03/04 05:18:35;;;;;;;18.00;10.37;;;4.70;99.90;;;;;;5111117;27;20028;-76
2024/03/04 05:21:03;;;;;;;19.07;10.60;;;4.70;99.90;;;;;;5112891;27;20087;-76
2024/03/04 05:23:29;;;;;;;17.70;10.87;;;4.70;99.90;;;;;;5113013;27;20027;-76
2024/03/04 05:25:54;;;;;;;16.53;11.37;;;4.70;99.90;;;;;;5112427;28;20030;-76
2024/03/04 05:28:20;;;;;;;15.60;11.17;;;4.70;99.90;;;;;;5113584;27;20023;-76
2024/03/04 05:30:45;;;;;;;23.93;12.40;;;4.70;99.90;;;;;;5112906;27;20098;-76
2024/03/04 05:33:11;;;;;;;18.63;12.60;;;4.70;99.90;;;;;;5110009;28;20643;-76
2024/03/04 05:35:36;;;;;;;21.23;12.73;;;4.70;99.90;;;;;;5112595;28;20084;-76
2024/03/04 05:38:02;;;;;;;19.23;12.87;;;4.70;99.90;;;;;;5113282;28;20058;-76
2024/03/04 05:40:28;;;;;;;20.77;13.37;;;4.60;99.90;;;;;;5110702;28;20041;-77
2024/03/04 05:42:54;;;;;;;21.77;13.80;;;4.70;99.90;;;;;;5111831;28;20019;-76
2024/03/04 05:45:20;;;;;;;20.83;14.17;;;4.70;99.90;;;;;;5112994;28;20016;-76
2024/03/04 05:47:46;;;;;;;24.80;14.67;;;4.80;99.90;;;;;;5113205;28;20035;-76
2024/03/04 05:50:14;;;;;;;22.27;14.13;;;4.80;99.90;;;;;;5113949;28;20032;-77
2024/03/04 05:52:40;;;;;;;20.67;14.60;;;4.80;99.90;;;;;;5110048;28;20491;-77
2024/03/04 05:55:06;;;;;;;25.10;14.73;;;4.80;99.90;;;;;;5111309;27;20033;-77
2024/03/04 05:57:32;;;;;;;23.43;15.37;;;4.80;99.90;;;;;;5112833;27;20042;-77
2024/03/04 05:59:58;;;;;;;26.63;15.67;;;4.90;99.90;;;;;;5106897;28;20031;-71
2024/03/04 06:02:24;;;;;;;27.43;17.40;;;4.90;99.90;;;;;;5103916;28;20039;-71
2024/03/04 06:04:49;;;;;;;29.10;17.47;;;4.90;99.90;;;;;;5116178;27;20027;-71
2024/03/04 06:07:16;;;;;;;23.73;16.40;;;5.00;99.90;;;;;;5111919;28;20031;-71
2024/03/04 06:09:42;;;;;;;25.40;17.50;;;5.00;99.90;;;;;;5112939;28;20015;-75
2024/03/04 06:12:08;;;;;;;25.87;16.23;;;5.00;99.90;;;;;;5112245;28;20069;-77
2024/03/04 06:14:34;;;;;;;27.47;17.47;;;5.00;99.90;;;;;;5112110;28;20028;-77
2024/03/04 06:16:59;;;;;;;25.10;17.63;;;5.10;99.90;;;;;;5112014;27;20417;-77
2024/03/04 06:19:25;;;;;;;28.20;18.23;;;5.20;99.90;;;;;;5110123;27;20176;-77
2024/03/04 06:21:50;;;;;;;30.60;20.00;;;5.20;99.90;;;;;;5110600;28;20483;-77
2024/03/04 06:24:16;;;;;;;29.90;19.80;;;5.30;99.90;;;;;;5107725;27;20020;-77
2024/03/04 06:26:43;;;;;;;34.47;21.50;;;5.40;99.90;;;;;;5113289;27;20012;-77
2024/03/04 06:29:08;;;;;;;32.63;20.83;;;5.40;99.90;;;;;;5113650;27;20054;-77
2024/03/04 06:31:34;;;;;;;34.07;22.93;;;5.50;99.90;;;;;;5111678;27;20067;-77
2024/03/04 06:34:02;;;;;;;33.97;22.53;;;5.60;99.90;;;;;;5109407;27;20391;-77
2024/03/04 06:36:27;;;;;;;31.97;22.70;;;5.70;99.90;;;;;;5118149;27;20007;-77
2024/03/04 06:38:53;;;;;;;34.33;22.00;;;5.80;99.90;;;;;;5113879;27;20038;-77
2024/03/04 06:41:19;;;;;;;34.90;22.80;;;5.80;99.90;;;;;;5117506;27;20031;-75
2024/03/04 06:43:44;;;;;;;34.63;23.37;;;5.90;99.90;;;;;;5115282;27;20035;-75
2024/03/04 06:46:10;;;;;;;36.17;23.20;;;6.00;99.90;;;;;;5121564;27;20125;-75
2024/03/04 06:48:36;;;;;;;35.70;24.23;;;6.10;99.90;;;;;;5118776;27;20011;-74
2024/03/04 06:51:02;;;;;;;39.13;23.07;;;6.10;99.90;;;;;;5118722;27;20019;-75
2024/03/04 06:53:28;;;;;;;42.37;23.50;;;6.20;99.90;;;;;;5116837;27;20020;-75
2024/03/04 06:55:53;;;;;;;35.27;23.07;;;6.20;99.90;;;;;;5113124;27;20028;-75
2024/03/04 06:58:19;;;;;;;32.93;22.70;;;6.30;99.90;;;;;;5117184;27;20055;-75
2024/03/04 07:00:45;;;;;;;37.97;23.93;;;6.30;99.90;;;;;;5115334;27;20114;-75
2024/03/04 07:03:10;;;;;;;35.37;24.20;;;6.40;99.90;;;;;;5113628;27;20115;-75
2024/03/04 07:05:37;;;;;;;43.83;24.03;;;6.40;99.90;;;;;;5114074;27;20024;-78
2024/03/04 07:08:03;;;;;;;35.63;24.13;;;6.50;99.90;;;;;;5119579;27;20417;-77
2024/03/04 07:10:29;;;;;;;36.10;23.93;;;6.60;99.90;;;;;;5116515;27;20092;-77
2024/03/04 07:12:54;;;;;;;34.63;24.17;;;6.60;99.90;;;;;;5118279;27;20055;-77
2024/03/04 07:15:20;;;;;;;37.90;24.13;;;6.70;99.90;;;;;;5113768;27;20024;-77
2024/03/04 07:17:46;;;;;;;34.73;23.67;;;6.70;99.90;;;;;;5112068;27;20106;-76
2024/03/04 07:20:11;;;;;;;37.83;25.23;;;6.80;99.90;;;;;;5113319;27;20024;-76
2024/03/04 07:22:37;;;;;;;38.90;26.10;;;6.90;99.90;;;;;;5116316;27;20019;-77
2024/03/04 07:25:04;;;;;;;40.27;25.80;;;7.00;99.90;;;;;;5112064;27;20429;-76
2024/03/04 07:27:30;;;;;;;38.17;25.77;;;7.00;99.90;;;;;;5114275;27;20027;-77
2024/03/04 07:29:55;;;;;;;36.67;24.63;;;7.00;99.90;;;;;;5111737;27;20384;-76
2024/03/04 07:32:21;;;;;;;35.47;24.90;;;7.10;99.90;;;;;;5118540;27;20015;-76
2024/03/04 07:34:47;;;;;;;32.23;23.47;;;7.20;99.90;;;;;;5113812;27;20513;-77
2024/03/04 07:37:13;;;;;;;39.47;24.80;;;7.20;99.90;;;;;;5114662;27;20102;-76
2024/03/04 07:39:38;;;;;;;36.60;23.70;;;7.30;99.90;;;;;;5115805;27;20106;-77
2024/03/04 07:42:04;;;;;;;35.70;24.90;;;7.30;99.90;;;;;;5111944;27;20062;-77
2024/03/04 07:44:29;;;;;;;36.67;25.30;;;7.30;99.90;;;;;;5112027;27;20434;-76
2024/03/04 07:46:55;;;;;;;33.73;24.77;;;7.30;99.90;;;;;;5117399;27;20073;-77
2024/03/04 07:49:20;;;;;;;34.73;24.10;;;7.30;99.90;;;;;;5112538;27;20032;-77
2024/03/04 07:51:46;;;;;;;36.90;25.17;;;7.30;99.90;;;;;;5116248;27;20027;-77
2024/03/04 07:54:11;;;;;;;35.50;24.70;;;7.30;99.90;;;;;;5116100;27;20064;-76
2024/03/04 07:56:37;;;;;;;35.13;24.20;;;7.40;99.90;;;;;;5113111;27;20080;-77
2024/03/04 07:59:04;;;;;;;33.60;24.17;;;7.40;99.90;;;;;;5115742;27;20127;-76
2024/03/04 08:01:29;;;;;;;42.40;26.07;;;7.40;99.90;;;;;;5117627;27;20125;-77
2024/03/04 08:03:55;;;;;;;36.20;24.57;;;7.50;99.90;;;;;;5109924;28;20015;-76
2024/03/04 08:06:20;;;;;;;38.60;25.93;;;7.60;99.90;;;;;;5116670;27;20026;-77
2024/03/04 08:08:48;;;;;;;35.03;24.87;;;7.60;99.90;;;;;;5120658;28;20023;-77
2024/03/04 08:11:14;;;;;;;35.70;24.57;;;7.50;99.90;;;;;;5107890;28;20023;-76
2024/03/04 08:13:40;;;;;;;38.47;25.70;;;7.60;99.90;;;;;;5115200;28;20440;-77
2024/03/04 08:16:05;;;;;;;40.70;25.47;;;7.70;99.90;;;;;;5110685;28;20047;-76
2024/03/04 08:18:31;;;;;;;38.87;25.57;;;7.70;99.90;;;;;;5114537;28;20024;-76
2024/03/04 08:20:56;;;;;;;42.53;25.20;;;7.60;99.90;;;;;;5109931;28;20027;-77
2024/03/04 08:23:22;;;;;;;37.23;25.40;;;7.60;99.90;;;;;;5114118;28;20022;-77
2024/03/04 08:25:48;;;;;;;41.10;25.33;;;7.60;99.90;;;;;;5115381;28;20750;-76
2024/03/04 08:28:14;;;;;;;37.83;25.70;;;7.70;99.90;;;;;;5112286;28;20030;-77
2024/03/04 08:30:39;;;;;;;39.10;25.07;;;7.70;99.90;;;;;;5115141;28;20020;-76
2024/03/04 08:33:05;;;;;;;38.07;25.73;;;7.70;99.90;;;;;;5112229;28;20123;-74
2024/03/04 08:35:30;;;;;;;34.83;24.80;;;7.80;99.90;;;;;;5117036;28;20106;-74
2024/03/04 08:37:56;;;;;;;36.90;23.60;;;7.80;99.90;;;;;;5112008;28;20051;-75
2024/03/04 08:40:22;;;;;;;36.97;25.07;;;7.80;99.90;;;;;;5113339;27;20115;-75
2024/03/04 08:42:47;;;;;;;38.90;25.10;;;7.90;99.90;;;;;;5113084;28;20043;-74
2024/03/04 08:45:16;;;;;;;38.80;25.43;;;7.80;99.90;;;;;;5122556;27;20027;-75
2024/03/04 08:47:41;;;;;;;36.77;25.10;;;7.80;99.90;;;;;;5112667;28;20098;-74
2024/03/04 08:50:08;;;;;;;40.47;25.43;;;7.90;99.90;;;;;;5116694;28;20578;-75
2024/03/04 08:52:34;;;;;;;36.20;23.90;;;7.90;99.90;;;;;;5080776;28;20106;-75
2024/03/04 08:55:00;;;;;;;40.13;24.83;;;7.90;99.90;;;;;;5109583;28;20107;-74
2024/03/04 08:57:25;;;;;;;38.03;24.37;;;7.80;99.90;;;;;;5114860;28;20123;-74
2024/03/04 08:59:51;;;;;;;41.83;25.70;;;7.90;99.90;;;;;;5113433;28;20477;-75
2024/03/04 09:02:17;;;;;;;38.63;24.83;;;7.80;99.90;;;;;;5118292;27;20052;-75
2024/03/04 09:04:43;;;;;;;36.57;24.60;;;7.80;99.90;;;;;;5115374;27;20020;-74
2024/03/04 09:07:09;;;;;;;36.40;24.40;;;7.90;99.90;;;;;;5122930;27;20475;-75
2024/03/04 09:09:35;;;;;;;37.07;25.57;;;7.90;99.90;;;;;;5119092;27;20710;-75
2024/03/04 09:12:03;;;;;;;35.60;23.57;;;7.90;99.90;;;;;;5123071;27;20023;-75
2024/03/04 09:14:29;;;;;;;36.63;24.87;;;8.00;99.90;;;;;;5105608;27;20161;-75
2024/03/04 09:16:55;;;;;;;35.47;23.60;;;8.00;99.90;;;;;;5114767;27;20115;-75
2024/03/04 09:19:21;;;;;;;39.00;25.63;;;8.00;99.90;;;;;;5119512;27;20019;-75
2024/03/04 09:21:46;;;;;;;39.93;24.87;;;8.00;99.90;;;;;;5112705;27;20022;-74
2024/03/04 09:24:14;;;;;;;38.57;25.90;;;8.10;99.90;;;;;;5117197;27;20024;-74
2024/03/04 09:26:45;;;;;;;37.00;25.37;;;8.10;99.90;;;;;;5120044;27;20085;-75
2024/03/04 09:29:10;;;;;;;38.60;23.67;;;8.10;99.90;;;;;;5123678;27;20432;-74
2024/03/04 09:31:36;;;;;;;34.87;23.20;;;8.10;99.90;;;;;;5114031;27;20024;-74
2024/03/04 09:34:02;;;;;;;36.60;24.87;;;8.10;99.90;;;;;;5116063;27;20095;-74
2024/03/04 09:36:28;;;;;;;37.90;25.07;;;8.10;99.90;;;;;;5120641;27;20101;-75
2024/03/04 09:38:54;;;;;;;40.67;25.30;;;8.10;99.90;;;;;;5108913;27;20032;-75
2024/03/04 09:41:19;;;;;;;35.10;23.97;;;8.10;99.90;;;;;;5117460;27;20019;-75
2024/03/04 09:43:46;;;;;;;36.57;22.90;;;8.10;99.90;;;;;;5112613;27;20027;-75
2024/03/04 09:46:12;;;;;;;37.70;24.40;;;8.20;99.90;;;;;;5112422;27;20032;-75
2024/03/04 09:48:39;;;;;;;38.90;23.40;;;8.20;99.90;;;;;;5109891;27;20020;-74
2024/03/04 09:51:07;;;;;;;36.83;24.57;;;8.20;99.90;;;;;;5113215;27;20028;-74
2024/03/04 09:53:35;;;;;;;32.97;23.53;;;8.10;99.90;;;;;;5113853;27;20468;-70
2024/03/04 09:56:01;;;;;;;34.10;22.83;;;8.20;99.90;;;;;;5113298;27;20080;-70
2024/03/04 09:58:27;;;;;;;34.87;23.03;;;8.20;99.90;;;;;;5115008;27;20038;-76
2024/03/04 10:00:54;;;;;;;35.80;23.87;;;8.20;99.90;;;;;;5113811;27;20433;-76
2024/03/04 10:03:19;;;;;;;35.10;22.50;;;8.30;99.90;;;;;;5116391;27;20031;-76
2024/03/04 10:05:45;;;;;;;35.43;22.70;;;8.30;99.90;;;;;;5113033;27;20019;-77
2024/03/04 10:08:11;;;;;;;36.03;23.43;;;8.30;99.90;;;;;;5119386;27;20035;-75
2024/03/04 10:10:37;;;;;;;33.43;22.80;;;8.30;99.90;;;;;;5113996;27;20107;-76
2024/03/04 10:13:08;;;;;;;38.07;23.13;;;8.40;99.90;;;;;;5117558;27;20028;-75
2024/03/04 10:15:34;;;;;;;34.93;22.10;;;8.40;99.90;;;;;;5114241;27;20019;-75
2024/03/04 10:18:10;;;;;;;36.03;22.37;;;8.50;99.90;;;;;;5117381;27;20503;-77
2024/03/04 10:20:37;;;;;;;34.63;22.97;;;8.50;99.90;;;;;;5115697;27;20062;-76
2024/03/04 10:23:03;;;;;;;34.07;23.13;;;8.50;99.90;;;;;;5096625;27;20017;-75
2024/03/04 10:25:29;;;;;;;38.87;22.60;;;8.60;99.90;;;;;;5112749;27;20038;-76
2024/03/04 10:27:54;;;;;;;35.50;22.30;;;8.60;99.90;;;;;;5123077;27;20110;-74
2024/03/04 10:30:27;;;;;;;33.17;20.80;;;8.60;99.90;;;;;;5122324;27;20016;-77
2024/03/04 10:32:57;;;;;;;32.53;21.87;;;8.70;99.90;;;;;;5121932;27;20499;-76
2024/03/04 10:35:25;;;;;;;34.17;22.27;;;8.70;99.90;;;;;;5120627;27;20042;-76
2024/03/04 10:37:52;;;;;;;31.20;21.93;;;8.80;99.90;;;;;;5115956;27;20507;-76
2024/03/04 10:40:21;;;;;;;33.23;21.13;;;8.80;99.90;;;;;;5114012;27;20505;-76
2024/03/04 10:42:47;;;;;;;33.03;21.00;;;8.90;99.90;;;;;;5121517;27;20020;-76
2024/03/04 10:45:14;;;;;;;30.67;21.37;;;8.90;99.90;;;;;;5121400;27;20040;-76
2024/03/04 10:47:44;;;;;;;34.23;22.00;;;8.90;99.90;;;;;;5126725;27;20370;-77
2024/03/04 10:50:11;;;;;;;32.83;21.37;;;8.90;99.90;;;;;;5117226;27;20084;-77
2024/03/04 10:52:36;;;;;;;34.47;21.53;;;8.90;99.90;;;;;;5115323;27;20022;-76
2024/03/04 10:55:02;;;;;;;30.57;21.33;;;8.90;99.90;;;;;;5118678;27;20020;-77
2024/03/04 10:57:29;;;;;;;30.87;21.17;;;9.00;99.90;;;;;;5120981;27;20034;-76
2024/03/04 10:59:59;;;;;;;30.83;21.80;;;9.10;99.90;;;;;;5119646;27;20551;-76
2024/03/04 11:02:36;;;;;;;33.27;20.40;;;9.20;99.90;;;;;;5120974;27;20020;-76
2024/03/04 11:05:06;;;;;;;31.90;21.57;;;9.30;99.90;;;;;;5099925;27;20024;-76
2024/03/04 11:07:37;;;;;;;30.23;21.43;;;9.30;99.90;;;;;;5119401;27;20049;-76
2024/03/04 11:10:13;;;;;;;32.33;21.23;;;9.30;99.90;;;;;;5124469;27;20118;-79
2024/03/04 11:12:41;;;;;;;33.83;19.87;;;9.30;99.90;;;;;;5106183;27;20506;-78
2024/03/04 11:15:09;;;;;;;30.60;20.97;;;9.30;99.90;;;;;;5119711;27;20631;-78
2024/03/04 11:17:45;;;;;;;31.40;19.97;;;9.30;99.90;;;;;;5121819;27;20068;-78
2024/03/04 11:20:14;;;;;;;31.43;20.20;;;9.30;99.90;;;;;;5122641;27;20057;-79
2024/03/04 11:22:43;;;;;;;33.17;20.87;;;9.30;99.90;;;;;;5122887;27;20054;-79
2024/03/04 11:25:09;;;;;;;30.53;20.00;;;9.40;99.90;;;;;;5120881;27;20023;-79
2024/03/04 11:27:35;;;;;;;28.73;19.33;;;9.40;99.90;;;;;;5118346;27;20415;-78
2024/03/04 11:30:01;;;;;;;28.93;18.73;;;9.40;99.90;;;;;;5110276;27;20031;-79
2024/03/04 11:32:28;;;;;;;29.47;18.23;;;9.40;99.90;;;;;;5121734;27;20023;-78
2024/03/04 11:35:10;;;;;;;32.00;20.17;;;9.40;99.90;;;;;;5120691;27;20028;-78
2024/03/04 11:37:52;;;;;;;31.20;18.70;;;9.40;99.90;;;;;;5126591;27;20016;-78
2024/03/04 11:40:23;;;;;;;26.97;18.20;;;9.40;99.90;;;;;;5123948;27;20466;-78
2024/03/04 11:42:49;;;;;;;32.80;18.37;;;9.50;99.90;;;;;;5124545;27;20023;-78
2024/03/04 11:45:21;;;;;;;27.13;18.37;;;9.50;99.90;;;;;;5114812;28;20031;-77
2024/03/04 11:47:47;;;;;;;28.93;18.53;;;9.50;99.90;;;;;;5122552;27;20019;-78
2024/03/04 11:50:46;;;;;;;27.90;18.30;;;9.60;99.90;;;;;;5121882;27;20121;-78
2024/03/04 11:53:26;;;;;;;27.77;17.90;;;9.60;99.90;;;;;;5117048;27;20055;-78
2024/03/04 11:55:51;;;;;;;27.47;17.60;;;9.70;99.90;;;;;;5113459;28;20600;-77
2024/03/04 11:58:18;;;;;;;27.33;18.33;;;9.70;99.90;;;;;;5117767;27;20070;-78
2024/03/04 12:00:45;;;;;;;30.77;17.70;;;9.70;99.90;;;;;;5115897;28;20019;-78
2024/03/04 12:03:14;;;;;;;30.70;19.27;;;9.60;99.90;;;;;;5115900;28;20032;-78
2024/03/04 12:05:44;;;;;;;28.37;19.03;;;9.60;99.90;;;;;;5114710;28;20023;-79
2024/03/04 12:08:11;;;;;;;28.80;18.70;;;9.60;99.90;;;;;;5113624;28;20020;-78
2024/03/04 12:10:37;;;;;;;28.00;17.70;;;9.60;99.90;;;;;;5113057;28;20054;-78
2024/03/04 12:13:02;;;;;;;26.23;17.00;;;9.60;99.90;;;;;;5113951;28;20020;-78
2024/03/04 12:15:28;;;;;;;28.47;17.67;;;9.70;99.90;;;;;;5113414;28;20023;-78
2024/03/04 12:17:54;;;;;;;25.87;16.93;;;9.80;99.90;;;;;;5115366;28;20161;-78
2024/03/04 12:20:20;;;;;;;24.63;16.40;;;9.90;99.90;;;;;;5113163;28;20494;-78
2024/03/04 12:22:45;;;;;;;26.70;18.00;;;10.00;99.90;;;;;;5113671;28;20150;-78
2024/03/04 12:25:11;;;;;;;26.40;16.63;;;10.00;99.90;;;;;;5114080;28;20103;-78
2024/03/04 12:27:41;;;;;;;27.57;17.13;;;10.10;99.90;;;;;;5094314;28;20039;-78
2024/03/04 12:30:16;;;;;;;29.23;18.03;;;10.10;99.90;;;;;;5113530;28;20027;-78
2024/03/04 12:32:42;;;;;;;;;;;10.00;99.90;;;;;;5114186;28;20053;-78
2024/03/04 12:35:28;;;;;;;27.93;17.60;;;10.00;99.90;;;;;;5115310;28;20356;-78
2024/03/04 12:37:56;;;;;;;27.13;16.93;;;10.00;99.90;;;;;;5113384;28;20067;-78
2024/03/04 12:40:24;;;;;;;26.10;18.63;;;9.90;99.90;;;;;;5115127;27;20087;-78
2024/03/04 12:42:55;;;;;;;29.60;19.73;;;9.90;99.90;;;;;;5113476;27;20015;-78